createdAt,value
2018-08-17T00:04:33.914Z,2.17
2018-08-17T00:10:28.931Z,1.6
2018-08-17T00:16:23.936Z,1.56
2018-08-17T00:22:18.918Z,1.27
2018-08-17T00:28:13.920Z,1.43
2018-08-17T00:34:08.974Z,1.63
2018-08-17T00:40:03.950Z,1.67
2018-08-17T00:45:58.989Z,1.78
2018-08-17T00:51:53.956Z,1.82
2018-08-17T00:57:48.942Z,1.79
2018-08-17T01:03:43.956Z,1.43
2018-08-17T01:09:38.979Z,1.32
2018-08-17T01:15:33.944Z,1.27
2018-08-17T01:21:28.958Z,1.73
2018-08-17T01:27:23.971Z,1.53
2018-08-17T01:33:18.980Z,2.21
2018-08-17T01:39:13.989Z,1.76
2018-08-17T01:45:09.015Z,1.44
2018-08-17T01:51:03.977Z,1.59
2018-08-17T01:56:58.994Z,1.63
2018-08-17T02:02:53.996Z,2.01
2018-08-17T02:08:48.989Z,2.09
2018-08-17T02:14:44.121Z,1.6
2018-08-17T02:20:39.007Z,2.1
2018-08-17T02:26:34.015Z,1.92
2018-08-17T02:32:29.019Z,1.93
2018-08-17T02:38:24.034Z,1.63
2018-08-17T02:44:19.044Z,1.22
2018-08-17T02:50:14.115Z,1.42
2018-08-17T02:56:09.009Z,1.83
2018-08-17T03:02:04.043Z,1.93
2018-08-17T03:07:59.363Z,2.22
2018-08-17T03:13:54.042Z,3.25
2018-08-17T03:19:49.045Z,1.83
2018-08-17T03:25:44.010Z,2.42
2018-08-17T03:31:39.109Z,2
2018-08-17T03:37:34.026Z,2.45
2018-08-17T03:43:29.047Z,1.93
2018-08-17T03:49:24.047Z,1.66
2018-08-17T03:55:19.053Z,2.79
2018-08-17T04:01:14.039Z,1.57
2018-08-17T04:07:09.095Z,1.44
2018-08-17T04:13:04.098Z,1.15
2018-08-17T04:18:59.073Z,1.99
2018-08-17T04:24:54.074Z,1.47
2018-08-17T04:30:49.112Z,1.44
2018-08-17T04:36:44.103Z,1.9
2018-08-17T04:42:39.070Z,1.43
2018-08-17T04:48:34.118Z,1.58
2018-08-17T04:54:29.064Z,1.57
2018-08-17T05:00:24.075Z,1.63
2018-08-17T05:06:19.113Z,1.23
2018-08-17T05:12:14.117Z,1.45
2018-08-17T05:18:09.137Z,1.74
2018-08-17T05:24:04.111Z,1.73
2018-08-17T05:29:59.205Z,1.48
2018-08-17T05:35:54.242Z,1.99
2018-08-17T05:41:49.103Z,1.16
2018-08-17T05:47:44.147Z,1.32
2018-08-17T05:53:39.140Z,0.94
2018-08-17T05:59:34.132Z,2.1
2018-08-17T06:05:29.141Z,1.43
2018-08-17T06:11:24.229Z,1.73
2018-08-17T06:17:19.134Z,2.01
2018-08-17T06:23:14.178Z,2.12
2018-08-17T06:29:09.156Z,1.53
2018-08-17T06:35:04.172Z,2.51
2018-08-17T06:40:59.143Z,2.02
2018-08-17T06:46:54.173Z,1.89
2018-08-17T06:52:49.154Z,1.98
2018-08-17T06:58:44.172Z,1.8
2018-08-17T07:04:39.181Z,1.49
2018-08-17T07:10:34.186Z,2.5
2018-08-17T07:16:29.229Z,1.67
2018-08-17T07:22:24.190Z,2.37
2018-08-17T07:28:19.209Z,1.68
2018-08-17T07:34:14.221Z,1.92
2018-08-17T07:40:09.190Z,1.3
2018-08-17T07:46:04.209Z,0.8
2018-08-17T07:51:59.236Z,0.79
2018-08-17T07:57:54.263Z,0.93
2018-08-17T08:03:49.216Z,0.85
2018-08-17T08:09:44.233Z,0.87
2018-08-17T08:15:39.246Z,0.93
2018-08-17T08:21:34.249Z,1.21
2018-08-17T08:27:29.250Z,0.61
2018-08-17T08:33:24.300Z,1.15
2018-08-17T08:39:19.286Z,0.63
2018-08-17T08:45:14.264Z,0.6
2018-08-17T08:51:09.557Z,0.56
2018-08-17T08:57:04.277Z,0.48
2018-08-17T09:02:59.502Z,0.66
2018-08-17T09:08:54.282Z,0.99
2018-08-17T09:14:49.266Z,0.57
2018-08-17T09:20:44.355Z,0.69
2018-08-17T09:26:39.317Z,0.66
2018-08-17T09:32:34.308Z,0.5
2018-08-17T09:38:29.326Z,0.5
2018-08-17T09:44:24.354Z,0.6
2018-08-17T09:50:19.314Z,0.33
2018-08-17T09:56:14.299Z,0.48
2018-08-17T10:02:09.318Z,0.55
2018-08-17T10:08:04.318Z,0.45
2018-08-17T10:13:59.331Z,0.36
2018-08-17T10:19:54.325Z,0.68
2018-08-17T10:25:49.337Z,0.35
2018-08-17T10:31:44.346Z,0.3
2018-08-17T10:37:39.346Z,0.46
2018-08-17T10:43:34.341Z,1.97
2018-08-17T10:49:29.361Z,0.37
2018-08-17T10:55:24.449Z,0.47
2018-08-17T11:01:19.352Z,0.81
2018-08-17T11:07:14.358Z,0.47
2018-08-17T11:13:09.410Z,0.82
2018-08-17T11:19:04.402Z,0.4
2018-08-17T11:24:59.422Z,0.43
2018-08-17T11:30:54.410Z,1.14
2018-08-17T11:36:49.413Z,0.64
2018-08-17T11:42:44.400Z,0.39
2018-08-17T11:48:39.398Z,0.44
2018-08-17T11:54:34.421Z,0.6
2018-08-17T12:00:29.408Z,0.46
2018-08-17T12:06:24.432Z,0.65
2018-08-17T12:12:19.436Z,0.91
2018-08-17T12:18:14.412Z,0.97
2018-08-17T12:24:09.456Z,0.58
2018-08-17T12:30:04.432Z,0.52
2018-08-17T12:35:59.420Z,0.72
2018-08-17T12:41:54.439Z,0.49
2018-08-17T12:47:49.480Z,0.76
2018-08-17T12:53:44.446Z,0.78
2018-08-17T12:59:39.447Z,1.96
2018-08-17T13:05:34.459Z,0.66
2018-08-17T13:11:29.471Z,0.54
2018-08-17T13:17:24.544Z,0.53
2018-08-17T13:23:19.503Z,0.58
2018-08-17T13:29:14.498Z,0.7
2018-08-17T13:35:09.528Z,0.59
2018-08-17T13:41:04.524Z,0.78
2018-08-17T13:46:59.525Z,0.43
2018-08-17T13:52:54.484Z,0.59
2018-08-17T13:58:49.548Z,0.7
2018-08-17T14:04:44.517Z,0.73
2018-08-17T14:10:39.528Z,1.69
2018-08-17T14:16:34.538Z,0.73
2018-08-17T14:22:29.633Z,0.84
2018-08-17T14:28:24.528Z,0.57
2018-08-17T14:34:19.591Z,0.6
2018-08-17T14:40:14.567Z,1
2018-08-17T14:46:09.527Z,0.68
2018-08-17T14:52:04.550Z,0.71
2018-08-17T14:57:59.539Z,0.52
2018-08-17T15:03:54.564Z,1.58
2018-08-17T15:09:49.633Z,2.31
2018-08-17T15:15:44.580Z,0.77
2018-08-17T15:21:39.574Z,0.93
2018-08-17T15:27:34.601Z,1.03
2018-08-17T15:33:29.583Z,0.54
2018-08-17T15:39:24.616Z,0.76
2018-08-17T15:45:19.581Z,0.7
2018-08-17T15:51:14.707Z,0.54
2018-08-17T15:57:09.605Z,0.54
2018-08-17T16:03:04.625Z,1.04
2018-08-17T16:08:59.653Z,0.6
2018-08-17T16:14:54.618Z,0.74
2018-08-17T16:20:49.619Z,0.83
2018-08-17T16:26:44.627Z,0.7
2018-08-17T16:32:39.622Z,0.57
2018-08-17T16:38:34.649Z,0.36
2018-08-17T16:44:29.640Z,0.49
2018-08-17T16:50:24.648Z,1.09
2018-08-17T16:56:19.641Z,1.18
2018-08-17T17:02:14.649Z,1.12
2018-08-17T17:08:09.663Z,2.02
2018-08-17T17:14:04.732Z,1.56
2018-08-17T17:19:59.645Z,1.06
2018-08-17T17:25:54.680Z,1.14
2018-08-17T17:31:49.660Z,1.06
2018-08-17T17:37:44.675Z,1.35
2018-08-17T17:43:39.682Z,1.41
2018-08-17T17:49:34.702Z,1.36
2018-08-17T17:55:29.703Z,1.78
2018-08-17T18:01:24.700Z,1.61
2018-08-17T18:07:19.708Z,1.8
2018-08-17T18:13:14.690Z,1.25
2018-08-17T18:19:09.705Z,1.33
2018-08-17T18:25:04.721Z,2.47
2018-08-17T18:30:59.775Z,0.99
2018-08-17T18:36:54.767Z,1.03
2018-08-17T18:42:49.723Z,1.27
2018-08-17T18:48:44.744Z,1.11
2018-08-17T18:54:39.754Z,1.78
2018-08-17T19:00:34.755Z,1.5
2018-08-17T19:06:29.752Z,1.93
2018-08-17T19:12:24.749Z,1.94
2018-08-17T19:18:19.794Z,2.01
2018-08-17T19:24:14.746Z,1.57
2018-08-17T19:30:09.765Z,1.53
2018-08-17T19:36:04.772Z,4.84
2018-08-17T19:41:59.757Z,6.42
2018-08-17T19:47:54.787Z,5.12
2018-08-17T19:53:49.834Z,3.02
2018-08-17T19:59:44.789Z,3.84
2018-08-17T20:05:39.793Z,1.67
2018-08-17T20:11:34.788Z,1.33
2018-08-17T20:17:29.791Z,2.62
2018-08-17T20:23:24.836Z,2.18
2018-08-17T20:29:19.793Z,1.96
2018-08-17T20:35:14.814Z,1.72
2018-08-17T20:41:09.816Z,1.52
2018-08-17T20:47:04.872Z,1.62
2018-08-17T20:52:59.872Z,2.51
2018-08-17T20:58:54.837Z,2.99
2018-08-17T21:04:49.845Z,2.17
2018-08-17T21:10:44.822Z,2.8
2018-08-17T21:16:39.847Z,1.8
2018-08-17T21:22:34.826Z,2.27
2018-08-17T21:28:29.860Z,3.11
2018-08-17T21:34:24.894Z,1.77
2018-08-17T21:40:19.873Z,1.77
2018-08-17T21:46:14.849Z,2.6
2018-08-17T21:52:09.864Z,4.83
2018-08-17T21:58:04.856Z,2.96
2018-08-17T22:03:59.878Z,2.62
2018-08-17T22:09:54.862Z,2.73
2018-08-17T22:15:49.880Z,2.73
2018-08-17T22:21:44.906Z,2.1
2018-08-17T22:27:39.878Z,1.56
2018-08-17T22:33:34.910Z,1.96
2018-08-17T22:39:29.924Z,1.42
2018-08-17T22:45:24.933Z,1.15
2018-08-17T22:51:19.942Z,1.64
2018-08-17T22:57:14.907Z,1.71
2018-08-17T23:03:09.920Z,1.8
2018-08-17T23:09:04.928Z,2.42
2018-08-17T23:14:59.926Z,2.24
2018-08-17T23:20:54.977Z,2.04
2018-08-17T23:26:49.939Z,2
2018-08-17T23:32:44.946Z,2.37
2018-08-17T23:38:39.988Z,2
2018-08-17T23:44:34.953Z,1.86
2018-08-17T23:50:29.972Z,2.27
2018-08-17T23:56:24.946Z,2.3
